Terminal Aerodrome Forecast
Issued by NWS Pittsburgh, PA

Current Version | Previous Version | Graphics & Text | Print | Product List | Glossary On
Versions: 1 2 3 4 5 6 7 8 9 10 11 12 13 14 15 16 17 18 19 20 21 22 23 24 25 26 27 28 29 30 31 32 33 34
000
FTUS41 KPBZ 161025 AAB
TAFPIT
TAF AMD
KPIT 161025Z 1610/1712 23010G18KT P6SM -SN SCT025 OVC045
      TEMPO 1611/1615 3SM -SN BKN025
     FM161700 24010KT P6SM BKN050
     FM162200 24006KT P6SM SCT250=

USA.gov is the U.S. government's official web portal to all federal, state and local government web resources and services.